createdAt,value
2022-09-16T00:00:44.945Z,21.20
2022-09-16T00:03:13.128Z,21.20
2022-09-16T00:05:42.446Z,21.20
2022-09-16T00:08:09.728Z,21.20
2022-09-16T00:10:37.219Z,21.10
2022-09-16T00:13:04.544Z,21.20
2022-09-16T00:15:31.701Z,21.10
2022-09-16T00:17:59.795Z,21.20
2022-09-16T00:20:27.028Z,21.10
2022-09-16T00:22:54.211Z,21.10
2022-09-16T00:25:21.061Z,21.10
2022-09-16T00:27:49.598Z,21.10
2022-09-16T00:30:17.005Z,21.10
2022-09-16T00:32:44.656Z,21.10
2022-09-16T00:35:11.834Z,21.10
2022-09-16T00:37:38.818Z,21.10
2022-09-16T00:40:06.297Z,21.00
2022-09-16T00:42:40.428Z,21.00
2022-09-16T00:45:18.044Z,21.00
2022-09-16T00:47:57.340Z,21.00
2022-09-16T00:50:38.128Z,21.00
2022-09-16T00:53:09.018Z,21.00
2022-09-16T00:55:37.654Z,20.90
2022-09-16T00:58:32.830Z,20.90
2022-09-16T01:01:00.270Z,20.90
2022-09-16T01:03:30.445Z,20.90
2022-09-16T01:05:57.838Z,20.90
2022-09-16T01:08:25.150Z,20.90
2022-09-16T01:10:52.522Z,20.90
2022-09-16T01:13:19.519Z,20.90
2022-09-16T01:16:10.108Z,20.90
2022-09-16T01:18:40.003Z,20.80
2022-09-16T01:21:06.992Z,20.80
2022-09-16T01:23:51.518Z,20.80
2022-09-16T01:26:31.927Z,20.80
2022-09-16T01:29:04.972Z,20.80
2022-09-16T01:31:49.522Z,20.80
2022-09-16T01:34:42.345Z,20.80
2022-09-16T01:37:33.990Z,20.80
2022-09-16T01:40:31.738Z,20.80
2022-09-16T01:43:26.297Z,20.80
2022-09-16T01:46:25.249Z,20.80
2022-09-16T01:48:58.997Z,20.80
2022-09-16T01:51:37.946Z,20.80
2022-09-16T01:54:26.370Z,20.70
2022-09-16T01:57:07.593Z,20.70
2022-09-16T01:59:49.623Z,20.70
2022-09-16T02:02:37.373Z,20.70
2022-09-16T02:05:09.328Z,20.70
2022-09-16T02:07:41.171Z,20.70
2022-09-16T02:10:19.972Z,20.70
2022-09-16T02:12:48.968Z,20.70
2022-09-16T02:15:22.159Z,20.70
2022-09-16T02:17:59.124Z,20.60
2022-09-16T02:20:29.797Z,20.70
2022-09-16T02:23:07.456Z,20.60
2022-09-16T02:25:38.431Z,20.60
2022-09-16T02:28:12.929Z,20.60
2022-09-16T02:30:45.781Z,20.60
2022-09-16T02:33:14.138Z,20.60
2022-09-16T02:35:41.938Z,20.60
2022-09-16T02:38:20.855Z,20.60
2022-09-16T02:40:54.688Z,20.60
2022-09-16T02:43:22.807Z,20.60
2022-09-16T02:45:59.431Z,20.60
2022-09-16T02:48:35.452Z,20.60
2022-09-16T02:51:12.915Z,20.60
2022-09-16T02:54:35.827Z,20.60
2022-09-16T02:57:04.342Z,20.60
2022-09-16T02:59:32.085Z,20.60
2022-09-16T03:02:01.180Z,20.60
2022-09-16T03:04:29.343Z,20.60
2022-09-16T03:06:56.545Z,20.60
2022-09-16T03:09:24.803Z,20.60
2022-09-16T03:11:59.616Z,20.50
2022-09-16T03:14:41.603Z,20.50
2022-09-16T03:17:32.153Z,20.50
2022-09-16T03:20:22.384Z,20.60
2022-09-16T03:23:11.371Z,20.50
2022-09-16T03:25:59.167Z,20.50
2022-09-16T03:28:35.749Z,20.50
2022-09-16T03:31:15.356Z,20.60
2022-09-16T03:33:59.023Z,20.50
2022-09-16T03:36:33.551Z,20.60
2022-09-16T03:39:02.953Z,20.50
2022-09-16T03:41:32.327Z,20.60
2022-09-16T03:44:03.741Z,20.60
2022-09-16T03:46:31.929Z,20.50
2022-09-16T03:48:59.263Z,20.50
2022-09-16T03:51:26.797Z,20.50
2022-09-16T03:53:54.527Z,20.50
2022-09-16T03:56:24.647Z,20.50
2022-09-16T03:58:51.574Z,20.50
2022-09-16T04:01:18.752Z,20.50
2022-09-16T04:03:45.680Z,20.50
2022-09-16T04:06:12.667Z,20.50
2022-09-16T04:08:39.855Z,20.50
2022-09-16T04:11:07.276Z,20.50
2022-09-16T04:13:37.287Z,20.50
2022-09-16T04:16:05.104Z,20.50
2022-09-16T04:18:33.084Z,20.50
2022-09-16T04:21:01.740Z,20.50
2022-09-16T04:23:29.164Z,20.40
2022-09-16T04:25:57.943Z,20.40
2022-09-16T04:28:25.034Z,20.50
2022-09-16T04:30:52.357Z,20.50
2022-09-16T04:33:21.437Z,20.40
2022-09-16T04:35:48.315Z,20.50
2022-09-16T04:38:15.627Z,20.40
2022-09-16T04:40:42.603Z,20.40
2022-09-16T04:43:09.810Z,20.40
2022-09-16T04:45:36.749Z,20.40
2022-09-16T04:48:03.618Z,20.40
2022-09-16T04:50:30.546Z,20.40
2022-09-16T04:52:58.206Z,20.40
2022-09-16T04:55:25.219Z,20.40
2022-09-16T04:57:52.527Z,20.40
2022-09-16T05:00:19.405Z,20.40
2022-09-16T05:02:49.005Z,20.40
2022-09-16T05:05:17.266Z,20.40
2022-09-16T05:07:44.119Z,20.40
2022-09-16T05:10:10.976Z,20.40
2022-09-16T05:12:38.298Z,20.50
2022-09-16T05:15:06.149Z,20.40
2022-09-16T05:17:50.301Z,20.20
2022-09-16T05:20:17.951Z,20.20
2022-09-16T05:22:44.973Z,20.10
2022-09-16T05:25:11.921Z,20.10
2022-09-16T05:27:38.855Z,20.10
2022-09-16T05:30:06.309Z,20.10
2022-09-16T05:32:33.222Z,20.10
2022-09-16T05:35:00.171Z,20.10
2022-09-16T05:37:27.135Z,20.10
2022-09-16T05:39:54.247Z,20.10
2022-09-16T05:42:21.278Z,20.10
2022-09-16T05:44:48.205Z,20.10
2022-09-16T05:47:15.040Z,20.10
2022-09-16T05:49:41.942Z,20.10
2022-09-16T05:52:08.823Z,20.10
2022-09-16T05:54:35.819Z,20.10
2022-09-16T05:57:07.223Z,20.00
2022-09-16T05:59:34.422Z,20.10
2022-09-16T06:02:01.333Z,20.10
2022-09-16T06:04:28.305Z,20.10
2022-09-16T06:06:55.373Z,20.00
2022-09-16T06:09:24.247Z,20.10
2022-09-16T06:11:56.846Z,20.10
2022-09-16T06:14:28.233Z,20.10
2022-09-16T06:16:55.190Z,20.00
2022-09-16T06:19:22.651Z,20.10
2022-09-16T06:21:49.727Z,20.00
2022-09-16T06:24:17.992Z,20.20
2022-09-16T06:26:46.686Z,20.40
2022-09-16T06:29:14.810Z,20.40
2022-09-16T06:31:42.090Z,20.50
2022-09-16T06:34:14.606Z,20.60
2022-09-16T06:36:44.754Z,20.60
2022-09-16T06:39:14.173Z,20.60
2022-09-16T06:41:41.148Z,20.70
2022-09-16T06:44:08.193Z,20.70
2022-09-16T06:46:35.109Z,20.80
2022-09-16T06:49:05.649Z,20.80
2022-09-16T06:51:33.958Z,20.80
2022-09-16T06:54:03.726Z,20.80
2022-09-16T06:56:30.894Z,20.70
2022-09-16T06:58:57.836Z,20.70
2022-09-16T07:01:28.317Z,20.80
2022-09-16T07:03:57.476Z,20.80
2022-09-16T07:06:50.779Z,20.80
2022-09-16T07:09:14.930Z,20.80
2022-09-16T07:11:41.940Z,20.80
2022-09-16T07:14:09.709Z,20.80
2022-09-16T07:16:37.004Z,20.80
2022-09-16T07:19:04.517Z,20.80
2022-09-16T07:21:31.594Z,20.80
2022-09-16T07:24:01.456Z,20.80
2022-09-16T07:26:33.564Z,20.90
2022-09-16T07:29:06.662Z,20.80
2022-09-16T07:31:36.169Z,20.80
2022-09-16T07:34:05.493Z,20.80
2022-09-16T07:36:41.520Z,20.80
2022-09-16T07:39:08.979Z,20.80
2022-09-16T07:41:37.996Z,20.80
2022-09-16T07:44:07.483Z,20.80
2022-09-16T07:46:36.313Z,20.80
2022-09-16T07:49:05.284Z,20.80
2022-09-16T07:51:32.772Z,20.90
2022-09-16T07:54:05.341Z,20.80
2022-09-16T07:56:34.745Z,20.80
2022-09-16T07:59:05.662Z,20.80
2022-09-16T08:01:33.454Z,20.90
2022-09-16T08:04:01.224Z,20.90
2022-09-16T08:06:31.044Z,20.90
2022-09-16T08:09:05.887Z,20.90
2022-09-16T08:11:42.348Z,20.90
2022-09-16T08:14:09.324Z,20.90
2022-09-16T08:16:36.188Z,20.90
2022-09-16T08:19:03.573Z,20.90
2022-09-16T08:21:31.093Z,20.90
2022-09-16T08:23:58.714Z,20.90
2022-09-16T08:26:25.821Z,21.00
2022-09-16T08:29:09.713Z,21.00
2022-09-16T08:31:38.052Z,21.00
2022-09-16T08:34:05.988Z,21.00
2022-09-16T08:36:33.894Z,21.00
2022-09-16T08:39:01.096Z,21.00
2022-09-16T08:41:37.168Z,21.00
2022-09-16T08:44:07.132Z,20.90
2022-09-16T08:46:45.604Z,21.00
2022-09-16T08:49:28.305Z,20.90
2022-09-16T08:51:56.817Z,21.00
2022-09-16T08:54:42.620Z,21.10
2022-09-16T08:57:15.765Z,21.10
2022-09-16T08:59:48.208Z,21.00
2022-09-16T09:02:37.248Z,21.10
2022-09-16T09:05:19.202Z,21.10
2022-09-16T09:08:12.187Z,21.10
2022-09-16T09:11:17.579Z,21.10
2022-09-16T09:14:10.888Z,21.10
2022-09-16T09:17:07.289Z,21.10
2022-09-16T09:20:06.961Z,21.00
2022-09-16T09:22:49.035Z,21.10
2022-09-16T09:25:37.332Z,21.10
2022-09-16T09:28:17.595Z,21.10
2022-09-16T09:31:11.144Z,21.10
2022-09-16T09:33:50.054Z,21.10
2022-09-16T09:36:19.898Z,21.10
2022-09-16T09:39:04.895Z,21.10
2022-09-16T09:41:44.530Z,21.10
2022-09-16T09:44:35.370Z,21.10
2022-09-16T09:47:08.898Z,21.10
2022-09-16T09:49:50.913Z,21.10
2022-09-16T09:52:31.336Z,21.10
2022-09-16T09:55:16.116Z,21.20
2022-09-16T09:58:17.103Z,21.10
2022-09-16T10:00:44.156Z,21.30
2022-09-16T10:03:14.857Z,21.30
2022-09-16T10:05:42.357Z,21.30
2022-09-16T10:08:35.438Z,21.40
2022-09-16T10:11:14.834Z,21.40
2022-09-16T10:13:58.135Z,21.40
2022-09-16T10:16:32.355Z,21.30
2022-09-16T10:19:06.786Z,21.30
2022-09-16T10:21:43.680Z,21.40
2022-09-16T10:24:32.072Z,21.40
2022-09-16T10:27:00.200Z,21.40
2022-09-16T10:29:27.286Z,21.40
2022-09-16T10:31:55.203Z,21.50
2022-09-16T10:34:32.993Z,21.60
2022-09-16T10:37:16.972Z,21.60
2022-09-16T10:39:55.837Z,21.50
2022-09-16T10:42:27.393Z,21.50
2022-09-16T10:45:01.432Z,21.60
2022-09-16T10:47:32.386Z,21.60
2022-09-16T10:50:03.753Z,21.50
2022-09-16T10:52:40.398Z,21.50
2022-09-16T10:55:23.232Z,21.40
2022-09-16T10:57:50.585Z,21.40
2022-09-16T11:00:31.679Z,21.40
2022-09-16T11:03:01.695Z,21.30
2022-09-16T11:06:06.235Z,21.30
2022-09-16T11:08:42.396Z,21.30
2022-09-16T11:11:33.721Z,21.30
2022-09-16T11:14:42.205Z,21.30
2022-09-16T11:17:56.479Z,21.30
2022-09-16T11:20:52.650Z,21.30
2022-09-16T11:23:48.164Z,21.40
2022-09-16T11:26:35.468Z,21.40
2022-09-16T11:29:27.549Z,21.40
2022-09-16T11:32:11.670Z,21.50
2022-09-16T11:34:41.642Z,21.50
2022-09-16T11:37:46.984Z,21.60
2022-09-16T11:40:50.117Z,21.60
2022-09-16T11:43:50.145Z,21.60
2022-09-16T11:46:32.393Z,21.70
2022-09-16T11:49:16.734Z,21.70
2022-09-16T11:52:02.086Z,21.60
2022-09-16T11:54:43.627Z,21.60
2022-09-16T11:57:18.191Z,21.50
2022-09-16T11:59:45.082Z,21.50
2022-09-16T12:02:26.371Z,21.50
2022-09-16T12:05:17.008Z,21.50
2022-09-16T12:07:49.495Z,21.40
2022-09-16T12:10:22.455Z,21.40
2022-09-16T12:13:16.112Z,21.30
2022-09-16T12:15:58.530Z,21.30
2022-09-16T12:18:28.020Z,21.20
2022-09-16T12:21:06.748Z,21.20
2022-09-16T12:23:40.642Z,21.30
2022-09-16T12:26:13.026Z,21.30
2022-09-16T12:28:47.126Z,21.40
2022-09-16T12:31:26.696Z,21.40
2022-09-16T12:33:59.309Z,21.20
2022-09-16T12:36:31.329Z,21.20
2022-09-16T12:39:01.999Z,21.20
2022-09-16T12:41:58.482Z,21.30
2022-09-16T12:45:03.858Z,21.20
2022-09-16T12:48:04.631Z,21.30
2022-09-16T12:50:56.086Z,21.20
2022-09-16T12:53:50.125Z,21.20
2022-09-16T12:56:32.333Z,21.30
2022-09-16T12:59:05.446Z,21.20
2022-09-16T13:01:59.659Z,21.20
2022-09-16T13:04:37.377Z,21.20
2022-09-16T13:07:05.063Z,21.30
2022-09-16T13:09:36.321Z,21.20
2022-09-16T13:12:35.594Z,21.20
2022-09-16T13:15:00.539Z,21.20
2022-09-16T13:17:30.683Z,21.20
2022-09-16T13:20:05.877Z,21.20
2022-09-16T13:22:57.819Z,21.20
2022-09-16T13:25:49.480Z,21.20
2022-09-16T13:28:39.430Z,21.30
2022-09-16T13:31:16.553Z,21.30
2022-09-16T13:33:45.887Z,21.30
2022-09-16T13:36:22.403Z,21.30
2022-09-16T13:38:55.119Z,21.40
2022-09-16T13:41:57.717Z,21.40
2022-09-16T13:44:39.809Z,21.40
2022-09-16T13:47:09.442Z,21.50
2022-09-16T13:50:15.294Z,21.30
2022-09-16T13:52:42.699Z,21.10
2022-09-16T13:55:25.090Z,21.00
2022-09-16T13:58:02.086Z,21.00
2022-09-16T14:00:37.591Z,21.00
2022-09-16T14:03:07.136Z,21.10
2022-09-16T14:05:53.362Z,21.10
2022-09-16T14:08:32.004Z,21.10
2022-09-16T14:11:22.181Z,21.10
2022-09-16T14:14:29.939Z,21.10
2022-09-16T14:16:57.741Z,21.10
2022-09-16T14:19:28.913Z,21.20
2022-09-16T14:22:05.266Z,21.10
2022-09-16T14:24:38.844Z,21.10
2022-09-16T14:27:20.646Z,21.20
2022-09-16T14:30:01.352Z,21.20
2022-09-16T14:32:34.598Z,21.20
2022-09-16T14:35:11.977Z,21.20
2022-09-16T14:37:39.996Z,21.30
2022-09-16T14:40:14.340Z,21.40
2022-09-16T14:42:51.312Z,21.40
2022-09-16T14:45:18.991Z,21.30
2022-09-16T14:47:51.567Z,21.30
2022-09-16T14:50:45.711Z,21.30
2022-09-16T14:53:35.733Z,21.20
2022-09-16T14:56:05.243Z,21.30
2022-09-16T14:58:33.727Z,21.30
2022-09-16T15:01:12.421Z,21.20
2022-09-16T15:03:54.072Z,21.20
2022-09-16T15:06:25.541Z,21.20
2022-09-16T15:09:27.627Z,21.20
2022-09-16T15:11:59.084Z,21.20
2022-09-16T15:14:26.662Z,21.40
2022-09-16T15:17:01.451Z,21.20
2022-09-16T15:19:41.418Z,21.30
2022-09-16T15:22:13.577Z,21.30
2022-09-16T15:24:41.803Z,21.20
2022-09-16T15:27:09.762Z,21.30
2022-09-16T15:29:49.528Z,21.30
2022-09-16T15:32:24.076Z,21.30
2022-09-16T15:35:12.058Z,21.30
2022-09-16T15:37:39.258Z,21.30
2022-09-16T15:40:22.446Z,21.30
2022-09-16T15:43:19.462Z,21.50
2022-09-16T15:46:01.556Z,21.40
2022-09-16T15:48:43.042Z,21.30
2022-09-16T15:51:32.760Z,21.30
2022-09-16T15:54:22.078Z,21.60
2022-09-16T15:57:02.011Z,21.70
2022-09-16T15:59:39.357Z,21.90
2022-09-16T16:02:23.820Z,22.00
2022-09-16T16:04:50.873Z,22.10
2022-09-16T16:07:40.091Z,22.10
2022-09-16T16:10:20.840Z,22.20
2022-09-16T16:12:52.241Z,22.20
2022-09-16T16:15:22.322Z,22.20
2022-09-16T16:17:49.902Z,22.20
2022-09-16T16:20:18.095Z,22.20
2022-09-16T16:22:45.537Z,22.20
2022-09-16T16:25:13.730Z,22.20
2022-09-16T16:27:40.932Z,22.20
2022-09-16T16:30:09.323Z,22.10
2022-09-16T16:32:38.534Z,22.10
2022-09-16T16:35:06.328Z,22.10
2022-09-16T16:37:46.037Z,22.10
2022-09-16T16:40:15.004Z,22.10
2022-09-16T16:42:43.556Z,22.20
2022-09-16T16:45:13.582Z,22.10
2022-09-16T16:47:41.196Z,22.10
2022-09-16T16:50:11.600Z,22.10
2022-09-16T16:52:38.863Z,22.10
2022-09-16T16:55:06.873Z,22.10
2022-09-16T16:57:33.902Z,22.10
2022-09-16T17:00:00.887Z,22.10
2022-09-16T17:02:27.916Z,22.10
2022-09-16T17:04:54.981Z,22.10
2022-09-16T17:07:26.529Z,22.10
2022-09-16T17:09:55.027Z,22.10
2022-09-16T17:12:21.901Z,22.10
2022-09-16T17:14:48.696Z,22.10
2022-09-16T17:17:15.583Z,22.20
2022-09-16T17:19:42.517Z,22.10
2022-09-16T17:22:09.701Z,22.00
2022-09-16T17:24:37.258Z,21.80
2022-09-16T17:27:04.476Z,21.60
2022-09-16T17:29:31.483Z,21.40
2022-09-16T17:32:00.866Z,21.30
2022-09-16T17:34:27.738Z,21.10
2022-09-16T17:36:54.777Z,21.00
2022-09-16T17:39:22.819Z,20.90
2022-09-16T17:41:51.100Z,20.80
2022-09-16T17:44:18.965Z,20.80
2022-09-16T17:46:47.258Z,20.70
2022-09-16T17:49:17.067Z,20.60
2022-09-16T17:51:44.650Z,20.50
2022-09-16T17:54:11.921Z,20.40
2022-09-16T17:56:38.979Z,20.40
2022-09-16T17:59:05.955Z,20.30
2022-09-16T18:01:33.071Z,20.30
2022-09-16T18:04:00.143Z,20.30
2022-09-16T18:06:35.509Z,20.20
2022-09-16T18:09:07.476Z,20.20
2022-09-16T18:11:35.465Z,20.20
2022-09-16T18:14:04.806Z,20.10
2022-09-16T18:16:32.865Z,20.10
2022-09-16T18:19:01.907Z,20.00
2022-09-16T18:21:29.662Z,20.00
2022-09-16T18:23:58.999Z,20.30
2022-09-16T18:26:26.749Z,20.60
2022-09-16T18:29:11.622Z,20.30
2022-09-16T18:31:44.314Z,20.20
2022-09-16T18:34:12.315Z,20.10
2022-09-16T18:36:39.838Z,20.00
2022-09-16T18:39:10.529Z,20.00
2022-09-16T18:41:39.966Z,20.00
2022-09-16T18:44:19.802Z,19.90
2022-09-16T18:46:47.312Z,19.90
2022-09-16T18:49:16.265Z,19.90
2022-09-16T18:51:50.986Z,19.80
2022-09-16T18:54:28.701Z,19.80
2022-09-16T18:56:57.630Z,19.80
2022-09-16T18:59:28.408Z,19.80
2022-09-16T19:02:01.435Z,19.80
2022-09-16T19:04:31.212Z,19.70
2022-09-16T19:07:06.120Z,19.70
2022-09-16T19:09:34.003Z,19.70
2022-09-16T19:12:02.318Z,19.80
2022-09-16T19:14:29.205Z,19.70
2022-09-16T19:16:56.257Z,19.60
2022-09-16T19:19:23.308Z,19.50
2022-09-16T19:21:50.215Z,19.40
2022-09-16T19:24:21.228Z,19.30
2022-09-16T19:26:50.490Z,19.30
2022-09-16T19:29:18.309Z,19.40
2022-09-16T19:31:49.429Z,19.40
2022-09-16T19:34:16.980Z,19.30
2022-09-16T19:36:53.039Z,19.30
2022-09-16T19:39:21.297Z,19.20
2022-09-16T19:41:48.803Z,19.10
2022-09-16T19:44:17.594Z,19.10
2022-09-16T19:46:49.062Z,19.10
2022-09-16T19:49:21.027Z,19.10
2022-09-16T19:51:49.250Z,19.20
2022-09-16T19:54:16.779Z,19.30
2022-09-16T19:56:48.197Z,19.30
2022-09-16T19:59:17.605Z,19.50
2022-09-16T20:01:44.596Z,19.70
2022-09-16T20:04:12.102Z,19.80
2022-09-16T20:06:41.102Z,19.90
2022-09-16T20:09:13.891Z,20.00
2022-09-16T20:11:43.794Z,20.00
2022-09-16T20:14:16.868Z,20.00
2022-09-16T20:16:44.117Z,20.10
2022-09-16T20:19:13.843Z,20.10
2022-09-16T20:21:41.644Z,20.10
2022-09-16T20:24:14.800Z,20.10
2022-09-16T20:26:41.859Z,20.10
2022-09-16T20:29:08.773Z,20.20
2022-09-16T20:31:36.889Z,20.20
2022-09-16T20:34:04.776Z,20.20
2022-09-16T20:36:35.624Z,20.20
2022-09-16T20:39:03.105Z,20.20
2022-09-16T20:41:31.954Z,20.10
2022-09-16T20:43:59.629Z,20.10
2022-09-16T20:46:35.717Z,20.10
2022-09-16T20:49:05.257Z,20.10
2022-09-16T20:51:33.869Z,20.10
2022-09-16T20:54:07.666Z,20.10
2022-09-16T20:56:38.999Z,20.10
2022-09-16T20:59:11.308Z,20.00
2022-09-16T21:01:39.546Z,20.00
2022-09-16T21:04:11.299Z,19.90
2022-09-16T21:06:38.532Z,19.90
2022-09-16T21:09:08.844Z,19.90
2022-09-16T21:11:36.348Z,19.90
2022-09-16T21:14:07.773Z,19.90
2022-09-16T21:16:37.652Z,19.80
2022-09-16T21:19:09.235Z,19.80
2022-09-16T21:21:38.715Z,19.80
2022-09-16T21:24:07.200Z,19.80
2022-09-16T21:26:36.341Z,19.70
2022-09-16T21:29:06.466Z,19.70
2022-09-16T21:31:34.603Z,19.70
2022-09-16T21:34:04.720Z,19.70
2022-09-16T21:36:32.181Z,19.70
2022-09-16T21:38:59.322Z,19.60
2022-09-16T21:41:26.608Z,19.70
2022-09-16T21:43:55.765Z,19.70
2022-09-16T21:46:26.876Z,19.70
2022-09-16T21:48:58.302Z,19.70
2022-09-16T21:51:25.354Z,19.70
2022-09-16T21:53:52.494Z,19.60
2022-09-16T21:56:22.763Z,19.70
2022-09-16T21:58:53.629Z,20.00
2022-09-16T22:01:23.309Z,20.00
2022-09-16T22:03:55.858Z,20.00
2022-09-16T22:06:25.621Z,20.00
2022-09-16T22:08:54.706Z,19.90
2022-09-16T22:11:23.755Z,19.90
2022-09-16T22:13:51.423Z,19.90
2022-09-16T22:16:28.087Z,19.90
2022-09-16T22:18:57.128Z,19.90
2022-09-16T22:21:26.123Z,19.90
2022-09-16T22:23:54.112Z,19.90
2022-09-16T22:26:23.270Z,19.90
2022-09-16T22:28:51.327Z,19.90
2022-09-16T22:31:25.023Z,19.90
2022-09-16T22:33:53.497Z,20.00
2022-09-16T22:36:23.399Z,20.00
2022-09-16T22:38:56.224Z,20.10
2022-09-16T22:41:25.118Z,20.10
2022-09-16T22:43:53.667Z,20.10
2022-09-16T22:46:29.306Z,20.10
2022-09-16T22:48:59.897Z,20.20
2022-09-16T22:51:28.084Z,20.20
2022-09-16T22:53:55.341Z,20.20
2022-09-16T22:56:25.070Z,20.20
2022-09-16T22:58:54.029Z,20.20
2022-09-16T23:01:24.235Z,20.20
2022-09-16T23:03:58.765Z,20.20
2022-09-16T23:06:28.000Z,20.30
2022-09-16T23:08:54.990Z,20.30
2022-09-16T23:11:25.549Z,20.30
2022-09-16T23:13:54.253Z,20.30
2022-09-16T23:16:33.119Z,20.20
2022-09-16T23:19:02.065Z,20.30
2022-09-16T23:21:29.828Z,20.30
2022-09-16T23:24:00.382Z,20.30
2022-09-16T23:26:33.592Z,20.30
2022-09-16T23:29:02.804Z,20.40
2022-09-16T23:31:33.154Z,20.40
2022-09-16T23:34:01.192Z,20.40
2022-09-16T23:36:28.619Z,20.30
2022-09-16T23:38:55.689Z,20.30
2022-09-16T23:41:26.653Z,20.30
2022-09-16T23:43:54.818Z,20.30
2022-09-16T23:46:23.618Z,20.20
2022-09-16T23:48:51.781Z,20.20
2022-09-16T23:51:24.608Z,20.10
2022-09-16T23:53:54.718Z,20.10
2022-09-16T23:56:22.162Z,20.20
2022-09-16T23:58:50.507Z,20.20
